createdAt,value
2019-03-24T00:02:28.283Z,8.17
2019-03-24T00:07:53.858Z,8.01
2019-03-24T00:13:18.494Z,7.75
2019-03-24T00:18:43.246Z,7.55
2019-03-24T00:24:07.866Z,7.40
2019-03-24T00:29:33.060Z,7.32
2019-03-24T00:34:58.568Z,7.16
2019-03-24T00:40:23.781Z,7.04
2019-03-24T00:45:48.013Z,6.88
2019-03-24T00:51:12.475Z,6.88
2019-03-24T00:56:37.957Z,6.83
2019-03-24T01:02:03.153Z,6.85
2019-03-24T01:07:28.374Z,6.89
2019-03-24T01:12:53.406Z,6.93
2019-03-24T01:18:18.378Z,6.96
2019-03-24T01:23:43.518Z,6.98
2019-03-24T01:29:07.999Z,6.83
2019-03-24T01:34:32.765Z,6.69
2019-03-24T01:39:57.643Z,6.55
2019-03-24T01:45:22.322Z,6.46
2019-03-24T01:50:47.006Z,6.29
2019-03-24T01:56:11.339Z,6.16
2019-03-24T02:01:36.464Z,5.92
2019-03-24T02:07:01.929Z,5.68
2019-03-24T02:12:26.191Z,5.50
2019-03-24T02:17:51.667Z,5.29
2019-03-24T02:23:16.311Z,5.08
2019-03-24T02:28:41.541Z,4.83
2019-03-24T02:34:06.691Z,4.68
2019-03-24T02:39:31.437Z,4.59
2019-03-24T02:44:57.086Z,4.43
2019-03-24T02:50:23.424Z,4.32
2019-03-24T02:55:48.495Z,4.27
2019-03-24T03:01:12.999Z,4.30
2019-03-24T03:06:37.686Z,4.12
2019-03-24T03:12:02.056Z,4.06
2019-03-24T03:17:26.274Z,4.15
2019-03-24T03:22:50.431Z,4.18
2019-03-24T03:28:14.677Z,4.11
2019-03-24T03:33:39.747Z,4.08
2019-03-24T03:39:07.463Z,4.05
2019-03-24T03:44:32.004Z,4.08
2019-03-24T03:49:57.468Z,4.02
2019-03-24T03:55:23.510Z,3.99
2019-03-24T04:00:47.687Z,3.92
2019-03-24T04:06:12.646Z,3.84
2019-03-24T04:11:37.902Z,3.80
2019-03-24T04:17:07.719Z,3.65
2019-03-24T04:22:28.945Z,3.47
2019-03-24T04:27:53.186Z,3.30
2019-03-24T04:33:18.542Z,3.02
2019-03-24T04:38:43.803Z,2.86
2019-03-24T04:44:08.245Z,2.72
2019-03-24T04:49:33.566Z,2.62
2019-03-24T04:54:57.684Z,2.61
2019-03-24T05:00:34.195Z,2.77
2019-03-24T05:05:59.386Z,3.04
2019-03-24T05:11:24.565Z,3.22
2019-03-24T05:16:48.951Z,3.46
2019-03-24T05:22:13.602Z,3.66
2019-03-24T05:27:38.329Z,3.86
2019-03-24T05:33:03.642Z,3.98
2019-03-24T05:38:29.169Z,4.06
2019-03-24T05:43:53.526Z,4.55
2019-03-24T05:49:18.219Z,5.26
2019-03-24T05:54:43.331Z,5.38
2019-03-24T06:00:08.573Z,5.30
2019-03-24T06:05:33.575Z,5.24
2019-03-24T06:10:57.938Z,5.33
2019-03-24T06:16:23.053Z,5.39
2019-03-24T06:21:48.211Z,5.58
2019-03-24T06:27:12.901Z,5.77
2019-03-24T06:32:37.814Z,5.80
2019-03-24T06:38:02.062Z,5.86
2019-03-24T06:43:26.634Z,6.90
2019-03-24T06:48:51.717Z,9.00
2019-03-24T06:54:17.080Z,10.67
2019-03-24T06:59:42.365Z,11.75
2019-03-24T07:05:07.617Z,12.32
2019-03-24T07:10:32.155Z,12.36
2019-03-24T07:15:57.410Z,13.62
2019-03-24T07:21:21.846Z,14.32
2019-03-24T07:26:46.946Z,14.42
2019-03-24T07:32:12.307Z,13.26
2019-03-24T07:37:37.862Z,11.87
2019-03-24T07:43:03.467Z,10.48
2019-03-24T07:48:28.589Z,10.31
2019-03-24T07:53:52.981Z,9.70
2019-03-24T07:59:17.522Z,10.69
2019-03-24T08:04:42.276Z,11.75
2019-03-24T08:10:07.578Z,11.91
2019-03-24T08:15:32.031Z,11.67
2019-03-24T08:20:56.211Z,12.48
2019-03-24T08:26:22.064Z,13.80
2019-03-24T08:31:47.133Z,13.51
2019-03-24T08:37:11.341Z,13.63
2019-03-24T08:42:35.896Z,13.55
2019-03-24T08:48:01.117Z,14.07
2019-03-24T08:53:26.661Z,13.48
2019-03-24T08:58:52.130Z,13.34
2019-03-24T09:04:16.348Z,13.22
2019-03-24T09:09:41.475Z,13.12
2019-03-24T09:15:07.446Z,13.24
2019-03-24T09:20:41.285Z,13.43
2019-03-24T09:25:58.005Z,14.67
2019-03-24T09:31:23.494Z,13.79
2019-03-24T09:36:48.889Z,13.34
2019-03-24T09:42:14.294Z,12.75
2019-03-24T09:47:39.730Z,13.83
2019-03-24T09:53:05.786Z,14.39
2019-03-24T09:58:31.300Z,15.06
2019-03-24T10:03:55.676Z,14.60
2019-03-24T10:09:21.243Z,16.09
2019-03-24T10:14:46.550Z,17.79
2019-03-24T10:20:12.494Z,17.27
2019-03-24T10:25:38.645Z,18.40
2019-03-24T10:31:03.790Z,18.71
2019-03-24T10:36:27.983Z,17.00
2019-03-24T10:41:53.384Z,15.82
2019-03-24T10:47:19.795Z,16.79
2019-03-24T10:52:46.459Z,18.16
2019-03-24T10:58:11.600Z,17.71
2019-03-24T11:03:36.871Z,18.41
2019-03-24T11:09:01.144Z,15.75
2019-03-24T11:14:27.212Z,14.07
2019-03-24T11:19:51.377Z,16.02
2019-03-24T11:25:15.891Z,15.24
2019-03-24T11:30:41.437Z,17.03
2019-03-24T11:36:06.623Z,18.56
2019-03-24T11:41:31.932Z,19.21
2019-03-24T11:46:56.350Z,17.00
2019-03-24T11:52:22.053Z,19.10
2019-03-24T11:57:47.380Z,19.08
2019-03-24T12:03:12.689Z,18.22
2019-03-24T12:08:38.815Z,17.86
2019-03-24T12:14:04.479Z,17.18
2019-03-24T12:19:30.817Z,18.58
2019-03-24T12:24:55.847Z,18.97
2019-03-24T12:30:21.565Z,19.65
2019-03-24T12:35:47.455Z,19.79
2019-03-24T12:41:12.167Z,19.83
2019-03-24T12:46:36.452Z,18.96
2019-03-24T12:52:01.058Z,19.02
2019-03-24T12:57:25.558Z,17.07
2019-03-24T13:02:50.501Z,18.35
2019-03-24T13:08:19.170Z,18.39
2019-03-24T13:13:43.656Z,19.86
2019-03-24T13:19:08.802Z,19.30
2019-03-24T13:24:34.067Z,19.50
2019-03-24T13:29:59.245Z,19.50
2019-03-24T13:35:24.705Z,19.44
2019-03-24T13:40:49.875Z,19.67
2019-03-24T13:46:14.215Z,17.42
2019-03-24T13:51:39.303Z,14.76
2019-03-24T13:57:03.673Z,15.78
2019-03-24T14:02:29.004Z,15.01
2019-03-24T14:07:54.322Z,14.33
2019-03-24T14:13:18.472Z,14.59
2019-03-24T14:18:43.272Z,14.19
2019-03-24T14:24:07.551Z,13.49
2019-03-24T14:29:31.932Z,13.60
2019-03-24T14:34:57.109Z,13.75
2019-03-24T14:40:21.307Z,13.93
2019-03-24T14:45:46.640Z,14.09
2019-03-24T14:51:11.359Z,13.25
2019-03-24T14:56:36.663Z,12.67
2019-03-24T15:02:01.083Z,12.67
2019-03-24T15:07:26.095Z,12.26
2019-03-24T15:12:51.477Z,11.96
2019-03-24T15:18:17.064Z,12.38
2019-03-24T15:23:42.042Z,11.64
2019-03-24T15:29:07.458Z,11.47
2019-03-24T15:34:31.929Z,11.95
2019-03-24T15:39:56.455Z,11.80
2019-03-24T15:45:21.617Z,11.61
2019-03-24T15:50:46.819Z,11.52
2019-03-24T15:56:11.399Z,11.35
2019-03-24T16:01:36.917Z,11.17
2019-03-24T16:07:01.129Z,11.09
2019-03-24T16:12:26.907Z,11.13
2019-03-24T16:17:52.983Z,11.06
2019-03-24T16:23:18.254Z,10.97
2019-03-24T16:28:42.712Z,10.86
2019-03-24T16:34:08.587Z,10.68
2019-03-24T16:39:34.269Z,10.53
2019-03-24T16:44:59.500Z,10.32
2019-03-24T16:50:24.828Z,10.37
2019-03-24T16:55:49.920Z,10.80
2019-03-24T17:01:14.216Z,10.64
2019-03-24T17:06:38.902Z,10.31
2019-03-24T17:12:03.753Z,10.13
2019-03-24T17:17:29.268Z,9.79
2019-03-24T17:22:53.729Z,9.34
2019-03-24T17:28:18.400Z,8.98
2019-03-24T17:33:43.552Z,8.76
2019-03-24T17:39:09.153Z,8.45
2019-03-24T17:44:33.557Z,8.13
2019-03-24T17:49:58.245Z,8.02
2019-03-24T17:55:27.674Z,7.73
2019-03-24T18:00:51.657Z,7.44
2019-03-24T18:06:16.754Z,7.30
2019-03-24T18:11:41.252Z,7.24
2019-03-24T18:17:06.005Z,7.09
2019-03-24T18:22:30.166Z,6.77
2019-03-24T18:27:54.605Z,6.69
2019-03-24T18:33:19.612Z,6.48
2019-03-24T18:38:44.764Z,6.36
2019-03-24T18:44:09.705Z,6.25
2019-03-24T18:49:35.328Z,6.12
2019-03-24T18:55:01.881Z,5.87
2019-03-24T19:00:27.217Z,5.76
2019-03-24T19:05:52.660Z,5.61
2019-03-24T19:11:18.154Z,5.38
2019-03-24T19:16:42.812Z,5.44
2019-03-24T19:22:08.264Z,5.06
2019-03-24T19:27:32.655Z,4.54
2019-03-24T19:32:57.789Z,4.39
2019-03-24T19:38:23.567Z,4.62
2019-03-24T19:43:48.603Z,4.67
2019-03-24T19:49:12.817Z,4.55
2019-03-24T19:54:37.264Z,4.27
2019-03-24T20:00:02.483Z,4.18
2019-03-24T20:05:27.706Z,4.10
2019-03-24T20:10:52.647Z,4.01
2019-03-24T20:16:17.525Z,3.85
2019-03-24T20:21:43.014Z,3.67
2019-03-24T20:27:08.427Z,3.83
2019-03-24T20:32:33.530Z,3.78
2019-03-24T20:37:58.886Z,3.83
2019-03-24T20:43:24.215Z,3.68
2019-03-24T20:48:48.659Z,3.57
2019-03-24T20:54:13.812Z,3.34
2019-03-24T20:59:38.927Z,3.34
2019-03-24T21:05:03.425Z,3.46
2019-03-24T21:10:28.589Z,3.59
2019-03-24T21:15:54.124Z,3.58
2019-03-24T21:21:19.498Z,3.54
2019-03-24T21:26:44.428Z,3.33
2019-03-24T21:32:09.543Z,3.13
2019-03-24T21:37:34.937Z,3.06
2019-03-24T21:42:59.350Z,2.92
2019-03-24T21:48:24.925Z,2.89
2019-03-24T21:53:49.795Z,2.76
2019-03-24T21:59:14.155Z,2.66
2019-03-24T22:04:38.521Z,2.63
2019-03-24T22:10:02.807Z,2.62
2019-03-24T22:15:28.236Z,2.62
2019-03-24T22:20:53.137Z,2.66
2019-03-24T22:26:18.154Z,2.59
2019-03-24T22:31:42.569Z,2.48
2019-03-24T22:37:15.433Z,2.40
2019-03-24T22:42:32.953Z,2.32
2019-03-24T22:47:57.860Z,2.26
2019-03-24T22:53:22.758Z,2.29
2019-03-24T22:58:47.125Z,2.14
2019-03-24T23:04:12.212Z,1.91
2019-03-24T23:09:37.787Z,1.90
2019-03-24T23:15:02.971Z,1.97
2019-03-24T23:20:27.499Z,1.97
2019-03-24T23:25:52.545Z,2.02
2019-03-24T23:31:17.819Z,1.99
2019-03-24T23:36:42.700Z,2.11
2019-03-24T23:42:07.641Z,2.19
2019-03-24T23:47:31.876Z,2.22
2019-03-24T23:52:56.406Z,2.21
2019-03-24T23:58:21.608Z,2.13
